createdAt,value
2023-05-24T00:00:28.760Z,2.93
2023-05-24T00:02:57.400Z,3.50
2023-05-24T00:05:24.344Z,2.90
2023-05-24T00:07:50.907Z,3.20
2023-05-24T00:10:17.310Z,3.77
2023-05-24T00:12:43.697Z,3.70
2023-05-24T00:15:10.522Z,3.67
2023-05-24T00:17:40.968Z,3.90
2023-05-24T00:20:10.842Z,2.73
2023-05-24T00:22:38.039Z,2.70
2023-05-24T00:25:05.102Z,3.60
2023-05-24T00:27:31.931Z,3.20
2023-05-24T00:29:59.339Z,3.13
2023-05-24T00:32:27.109Z,3.17
2023-05-24T00:34:53.559Z,3.87
2023-05-24T00:37:19.938Z,3.23
2023-05-24T00:39:46.384Z,2.90
2023-05-24T00:42:12.783Z,3.80
2023-05-24T00:44:39.211Z,2.50
2023-05-24T00:47:06.015Z,2.30
2023-05-24T00:49:35.035Z,3.70
2023-05-24T00:52:01.786Z,3.30
2023-05-24T00:54:29.381Z,3.57
2023-05-24T00:56:56.804Z,3.03
2023-05-24T00:59:26.719Z,2.57
2023-05-24T01:01:55.397Z,3.60
2023-05-24T01:04:22.970Z,3.47
2023-05-24T01:07:07.615Z,4.23
2023-05-24T01:09:46.030Z,3.13
2023-05-24T01:12:26.410Z,3.40
2023-05-24T01:15:05.200Z,3.30
2023-05-24T01:17:48.386Z,3.40
2023-05-24T01:20:17.506Z,4.27
2023-05-24T01:23:04.739Z,3.57
2023-05-24T01:26:00.674Z,4.23
2023-05-24T01:28:27.571Z,4.30
2023-05-24T01:30:55.761Z,4.20
2023-05-24T01:33:23.422Z,4.27
2023-05-24T01:35:49.819Z,3.53
2023-05-24T01:38:16.266Z,3.60
2023-05-24T01:40:44.241Z,3.57
2023-05-24T01:43:31.509Z,3.77
2023-05-24T01:46:09.606Z,3.40
2023-05-24T01:49:09.977Z,3.33
2023-05-24T01:51:44.206Z,3.93
2023-05-24T01:54:13.272Z,2.87
2023-05-24T01:56:41.660Z,3.37
2023-05-24T01:59:09.167Z,2.80
2023-05-24T02:01:35.839Z,3.37
2023-05-24T02:04:02.939Z,3.40
2023-05-24T02:06:29.531Z,3.97
2023-05-24T02:08:55.952Z,3.53
2023-05-24T02:11:22.876Z,4.23
2023-05-24T02:13:49.298Z,3.50
2023-05-24T02:16:15.749Z,3.60
2023-05-24T02:18:46.752Z,3.37
2023-05-24T02:21:13.666Z,3.33
2023-05-24T02:23:40.136Z,3.20
2023-05-24T02:26:06.596Z,3.07
2023-05-24T02:28:33.042Z,4.10
2023-05-24T02:30:59.484Z,4.10
2023-05-24T02:33:26.012Z,4.83
2023-05-24T02:35:52.542Z,3.77
2023-05-24T02:38:19.017Z,3.70
2023-05-24T02:40:45.433Z,4.20
2023-05-24T02:43:11.842Z,4.20
2023-05-24T02:45:38.234Z,4.00
2023-05-24T02:48:04.963Z,4.50
2023-05-24T02:50:31.507Z,4.27
2023-05-24T02:52:57.955Z,4.43
2023-05-24T02:55:24.686Z,4.60
2023-05-24T02:57:51.354Z,4.67
2023-05-24T03:00:18.515Z,5.00
2023-05-24T03:02:47.622Z,3.67
2023-05-24T03:05:14.617Z,3.53
2023-05-24T03:07:41.146Z,4.50
2023-05-24T03:10:08.022Z,4.70
2023-05-24T03:12:34.476Z,4.87
2023-05-24T03:15:00.920Z,4.53
2023-05-24T03:17:27.471Z,5.50
2023-05-24T03:19:53.985Z,5.33
2023-05-24T03:22:20.474Z,4.40
2023-05-24T03:24:48.632Z,4.37
2023-05-24T03:27:15.182Z,5.07
2023-05-24T03:29:41.993Z,4.53
2023-05-24T03:32:08.523Z,4.57
2023-05-24T03:34:35.011Z,4.70
2023-05-24T03:37:01.655Z,4.50
2023-05-24T03:39:28.198Z,5.20
2023-05-24T03:42:01.076Z,4.17
2023-05-24T03:44:27.548Z,4.63
2023-05-24T03:46:54.130Z,5.33
2023-05-24T03:49:20.556Z,4.77
2023-05-24T03:51:47.000Z,4.77
2023-05-24T03:54:13.373Z,4.40
2023-05-24T03:56:41.305Z,4.67
2023-05-24T03:59:08.450Z,4.83
2023-05-24T04:01:36.636Z,4.87
2023-05-24T04:04:04.037Z,5.23
2023-05-24T04:06:30.887Z,5.93
2023-05-24T04:08:59.672Z,4.97
2023-05-24T04:11:29.071Z,4.77
2023-05-24T04:13:57.162Z,5.13
2023-05-24T04:16:24.517Z,4.77
2023-05-24T04:18:51.325Z,4.70
2023-05-24T04:21:17.885Z,4.07
2023-05-24T04:23:44.410Z,5.73
2023-05-24T04:26:10.974Z,6.03
2023-05-24T04:28:41.052Z,4.83
2023-05-24T04:31:09.304Z,4.77
2023-05-24T04:33:36.897Z,5.57
2023-05-24T04:36:03.451Z,5.83
2023-05-24T04:38:32.184Z,4.30
2023-05-24T04:40:59.385Z,4.93
2023-05-24T04:43:28.742Z,6.37
2023-05-24T04:45:55.557Z,6.17
2023-05-24T04:48:24.354Z,4.90
2023-05-24T04:50:52.274Z,7.13
2023-05-24T04:53:19.799Z,5.20
2023-05-24T04:55:46.687Z,5.30
2023-05-24T04:58:13.954Z,5.93
2023-05-24T05:00:40.696Z,6.53
2023-05-24T05:03:08.247Z,6.17
2023-05-24T05:05:34.985Z,6.60
2023-05-24T05:08:02.433Z,7.43
2023-05-24T05:10:29.039Z,5.97
2023-05-24T05:12:55.798Z,7.07
2023-05-24T05:15:23.902Z,7.10
2023-05-24T05:17:50.513Z,6.93
2023-05-24T05:20:17.106Z,7.37
2023-05-24T05:22:49.958Z,7.47
2023-05-24T05:25:16.481Z,6.53
2023-05-24T05:27:43.469Z,6.47
2023-05-24T05:30:10.422Z,6.90
2023-05-24T05:32:38.365Z,7.53
2023-05-24T05:35:05.541Z,8.17
2023-05-24T05:37:32.111Z,7.87
2023-05-24T05:39:58.550Z,6.40
2023-05-24T05:42:25.065Z,7.70
2023-05-24T05:44:52.547Z,6.97
2023-05-24T05:47:19.092Z,7.73
2023-05-24T05:49:45.539Z,7.87
2023-05-24T05:52:12.073Z,7.17
2023-05-24T05:54:38.534Z,6.97
2023-05-24T05:57:05.390Z,7.57
2023-05-24T05:59:35.809Z,6.23
2023-05-24T06:02:03.590Z,6.33
2023-05-24T06:04:30.176Z,6.97
2023-05-24T06:06:56.938Z,6.33
2023-05-24T06:09:23.358Z,6.53
2023-05-24T06:11:49.838Z,7.13
2023-05-24T06:14:21.200Z,6.37
2023-05-24T06:16:48.407Z,6.40
2023-05-24T06:19:15.367Z,7.30
2023-05-24T06:21:47.155Z,6.80
2023-05-24T06:24:15.125Z,6.43
2023-05-24T06:26:41.977Z,6.53
2023-05-24T06:29:09.491Z,6.47
2023-05-24T06:31:36.057Z,6.90
2023-05-24T06:34:04.444Z,6.43
2023-05-24T06:36:35.386Z,7.17
2023-05-24T06:39:02.692Z,6.23
2023-05-24T06:41:29.196Z,6.73
2023-05-24T06:43:55.690Z,6.80
2023-05-24T06:46:22.125Z,6.33
2023-05-24T06:48:48.647Z,5.60
2023-05-24T06:51:15.218Z,5.80
2023-05-24T06:53:41.696Z,5.20
2023-05-24T06:56:09.403Z,5.77
2023-05-24T06:58:36.497Z,6.70
2023-05-24T07:01:04.975Z,5.87
2023-05-24T07:03:32.334Z,4.67
2023-05-24T07:05:58.991Z,5.20
2023-05-24T07:08:25.735Z,5.93
2023-05-24T07:10:53.503Z,6.73
2023-05-24T07:13:20.022Z,5.50
2023-05-24T07:15:47.026Z,5.57
2023-05-24T07:18:14.168Z,4.67
2023-05-24T07:20:41.050Z,4.30
2023-05-24T07:23:07.863Z,6.00
2023-05-24T07:25:34.334Z,6.07
2023-05-24T07:28:01.180Z,5.90
2023-05-24T07:30:34.852Z,4.53
2023-05-24T07:33:01.842Z,5.70
2023-05-24T07:35:29.337Z,5.10
2023-05-24T07:37:56.427Z,4.87
2023-05-24T07:40:23.143Z,5.23
2023-05-24T07:42:49.680Z,4.93
2023-05-24T07:45:16.150Z,5.17
2023-05-24T07:47:42.955Z,5.43
2023-05-24T07:50:10.467Z,5.23
2023-05-24T07:52:38.703Z,5.27
2023-05-24T07:55:06.467Z,6.20
2023-05-24T07:57:33.560Z,6.27
2023-05-24T08:00:05.928Z,4.87
2023-05-24T08:02:38.213Z,6.07
2023-05-24T08:05:05.306Z,5.20
2023-05-24T08:07:31.739Z,5.97
2023-05-24T08:09:58.154Z,5.37
2023-05-24T08:12:25.898Z,5.13
2023-05-24T08:14:52.545Z,5.37
2023-05-24T08:17:18.978Z,4.97
2023-05-24T08:19:45.390Z,6.80
2023-05-24T08:22:12.646Z,5.13
2023-05-24T08:24:39.099Z,5.50
2023-05-24T08:27:05.573Z,4.90
2023-05-24T08:29:32.389Z,5.13
2023-05-24T08:31:59.867Z,5.27
2023-05-24T08:34:26.725Z,5.30
2023-05-24T08:36:53.726Z,5.73
2023-05-24T08:39:20.171Z,5.27
2023-05-24T08:41:57.407Z,4.93
2023-05-24T08:44:42.118Z,5.00
2023-05-24T08:47:09.664Z,4.63
2023-05-24T08:49:37.695Z,5.70
2023-05-24T08:52:07.412Z,4.50
2023-05-24T08:54:37.471Z,4.07
2023-05-24T08:57:04.410Z,5.27
2023-05-24T08:59:31.024Z,4.57
2023-05-24T09:01:58.061Z,4.57
2023-05-24T09:04:26.752Z,5.07
2023-05-24T09:06:54.863Z,4.03
2023-05-24T09:09:22.157Z,4.87
2023-05-24T09:11:51.785Z,5.20
2023-05-24T09:14:18.641Z,4.30
2023-05-24T09:16:45.680Z,4.47
2023-05-24T09:19:12.215Z,4.70
2023-05-24T09:21:38.682Z,4.13
2023-05-24T09:24:08.454Z,3.87
2023-05-24T09:26:37.161Z,3.83
2023-05-24T09:29:07.676Z,5.60
2023-05-24T09:31:35.953Z,4.90
2023-05-24T09:34:03.277Z,4.60
2023-05-24T09:36:36.824Z,4.63
2023-05-24T09:39:09.393Z,4.00
2023-05-24T09:41:37.198Z,3.80
2023-05-24T09:44:04.077Z,4.20
2023-05-24T09:46:35.993Z,4.53
2023-05-24T09:49:04.059Z,4.00
2023-05-24T09:51:30.971Z,3.53
2023-05-24T09:53:58.222Z,3.77
2023-05-24T09:56:26.234Z,3.90
2023-05-24T09:58:54.811Z,3.73
2023-05-24T10:01:25.206Z,4.93
2023-05-24T10:03:57.482Z,5.07
2023-05-24T10:06:25.044Z,4.33
2023-05-24T10:08:52.197Z,4.07
2023-05-24T10:11:19.053Z,5.20
2023-05-24T10:13:45.474Z,4.67
2023-05-24T10:16:12.821Z,4.50
2023-05-24T10:18:39.751Z,5.00
2023-05-24T10:21:09.697Z,4.60
2023-05-24T10:23:43.784Z,4.10
2023-05-24T10:26:12.602Z,4.57
2023-05-24T10:28:44.315Z,4.47
2023-05-24T10:31:15.741Z,4.07
2023-05-24T10:33:44.835Z,4.77
2023-05-24T10:36:13.914Z,4.87
2023-05-24T10:38:40.799Z,4.97
2023-05-24T10:41:08.442Z,3.77
2023-05-24T10:43:36.475Z,3.77
2023-05-24T10:46:04.777Z,5.13
2023-05-24T10:49:01.117Z,4.07
2023-05-24T10:51:39.472Z,4.23
2023-05-24T10:54:13.731Z,5.20
2023-05-24T10:56:50.822Z,3.97
2023-05-24T10:59:28.409Z,4.77
2023-05-24T11:01:57.457Z,5.27
2023-05-24T11:04:23.940Z,4.70
2023-05-24T11:07:01.410Z,4.93
2023-05-24T11:09:27.881Z,4.60
2023-05-24T11:11:57.535Z,4.93
2023-05-24T11:14:27.350Z,4.50
2023-05-24T11:16:54.124Z,5.03
2023-05-24T11:19:28.910Z,4.97
2023-05-24T11:21:58.901Z,4.03
2023-05-24T11:24:26.708Z,5.43
2023-05-24T11:26:53.831Z,4.70
2023-05-24T11:29:24.016Z,4.57
2023-05-24T11:31:57.343Z,5.50
2023-05-24T11:34:24.599Z,5.00
2023-05-24T11:36:53.257Z,5.50
2023-05-24T11:39:19.675Z,5.50
2023-05-24T11:41:47.523Z,5.00
2023-05-24T11:44:18.926Z,4.73
2023-05-24T11:46:46.287Z,4.80
2023-05-24T11:49:14.794Z,4.63
2023-05-24T11:51:41.739Z,5.03
2023-05-24T11:54:08.549Z,5.07
2023-05-24T11:56:35.215Z,5.03
2023-05-24T11:59:17.845Z,5.37
2023-05-24T12:01:44.567Z,5.23
2023-05-24T12:04:11.868Z,5.17
2023-05-24T12:06:43.300Z,5.63
2023-05-24T12:09:13.540Z,4.47
2023-05-24T12:11:44.549Z,4.43
2023-05-24T12:14:15.749Z,4.40
2023-05-24T12:16:43.418Z,4.93
2023-05-24T12:21:59.034Z,5.23
2023-05-24T12:24:26.861Z,5.13
2023-05-24T12:26:58.302Z,4.73
2023-05-24T12:29:24.786Z,4.80
2023-05-24T12:31:51.311Z,4.83
2023-05-24T12:34:19.699Z,6.07
2023-05-24T12:36:47.699Z,7.47
2023-05-24T12:39:25.042Z,7.37
2023-05-24T12:41:55.521Z,5.87
2023-05-24T12:44:26.359Z,6.33
2023-05-24T12:46:54.087Z,5.73
2023-05-24T12:49:20.840Z,4.57
2023-05-24T12:51:49.391Z,5.23
2023-05-24T12:54:19.261Z,5.67
2023-05-24T12:56:46.075Z,5.50
2023-05-24T12:59:12.642Z,5.30
2023-05-24T13:01:39.095Z,5.73
2023-05-24T13:04:05.633Z,5.47
2023-05-24T13:06:32.147Z,5.20
2023-05-24T13:08:58.604Z,6.10
2023-05-24T13:11:28.649Z,6.37
2023-05-24T13:13:55.105Z,4.50
2023-05-24T13:16:21.610Z,5.07
2023-05-24T13:18:48.171Z,6.67
2023-05-24T13:21:14.937Z,5.40
2023-05-24T13:23:43.215Z,5.97
2023-05-24T13:26:09.669Z,5.10
2023-05-24T13:28:36.378Z,5.03
2023-05-24T13:31:03.629Z,4.57
2023-05-24T13:33:32.921Z,5.50
2023-05-24T13:35:59.533Z,5.50
2023-05-24T13:38:26.011Z,5.57
2023-05-24T13:40:53.639Z,5.83
2023-05-24T13:43:20.149Z,4.80
2023-05-24T13:45:46.699Z,5.40
2023-05-24T13:48:13.291Z,5.27
2023-05-24T13:50:40.246Z,4.80
2023-05-24T13:53:07.057Z,5.27
2023-05-24T13:55:35.437Z,5.13
2023-05-24T13:58:02.248Z,5.10
2023-05-24T14:00:28.688Z,5.43
2023-05-24T14:02:55.703Z,6.10
2023-05-24T14:05:27.308Z,6.33
2023-05-24T14:07:55.329Z,7.13
2023-05-24T14:10:22.042Z,5.53
2023-05-24T14:12:56.434Z,6.00
2023-05-24T14:15:30.501Z,5.37
2023-05-24T14:17:58.059Z,5.77
2023-05-24T14:20:24.643Z,4.80
2023-05-24T14:22:51.051Z,5.60
2023-05-24T14:25:17.752Z,5.40
2023-05-24T14:27:45.499Z,5.47
2023-05-24T14:30:12.580Z,5.90
2023-05-24T14:32:38.991Z,5.60
2023-05-24T14:35:05.976Z,4.63
2023-05-24T14:37:32.554Z,5.60
2023-05-24T14:39:59.027Z,4.97
2023-05-24T14:42:25.572Z,5.47
2023-05-24T14:44:52.002Z,5.17
2023-05-24T14:47:18.460Z,5.57
2023-05-24T14:49:44.860Z,5.60
2023-05-24T14:52:11.301Z,5.63
2023-05-24T14:54:37.725Z,5.13
2023-05-24T14:57:04.413Z,5.37
2023-05-24T14:59:30.809Z,5.73
2023-05-24T15:01:57.222Z,5.70
2023-05-24T15:04:23.619Z,5.63
2023-05-24T15:06:50.233Z,6.03
2023-05-24T15:09:16.812Z,5.70
2023-05-24T15:11:43.311Z,5.10
2023-05-24T15:14:09.713Z,4.93
2023-05-24T15:16:36.527Z,6.27
2023-05-24T15:19:03.391Z,7.33
2023-05-24T15:21:29.780Z,6.07
2023-05-24T15:23:56.184Z,5.33
2023-05-24T15:26:22.653Z,5.87
2023-05-24T15:28:49.054Z,5.07
2023-05-24T15:31:15.483Z,5.47
2023-05-24T15:33:42.080Z,5.67
2023-05-24T15:36:08.613Z,5.73
2023-05-24T15:38:35.128Z,5.33
2023-05-24T15:41:01.626Z,4.70
2023-05-24T15:43:35.518Z,4.23
2023-05-24T15:46:01.937Z,5.57
2023-05-24T15:48:28.364Z,5.10
2023-05-24T15:51:42.810Z,4.90
2023-05-24T15:53:41.594Z,5.50
2023-05-24T15:56:08.701Z,6.03
2023-05-24T15:58:35.121Z,5.33
2023-05-24T16:01:01.540Z,5.77
2023-05-24T16:03:27.981Z,5.77
2023-05-24T16:05:54.524Z,5.07
2023-05-24T16:08:27.322Z,4.57
2023-05-24T16:10:54.590Z,4.93
2023-05-24T16:13:21.569Z,5.30
2023-05-24T16:15:51.496Z,5.20
2023-05-24T16:18:21.266Z,5.43
2023-05-24T16:20:51.233Z,4.83
2023-05-24T16:23:19.161Z,4.87
2023-05-24T16:25:51.741Z,4.30
2023-05-24T16:28:23.558Z,4.53
2023-05-24T16:30:55.849Z,5.13
2023-05-24T16:33:23.483Z,4.53
2023-05-24T16:35:55.117Z,5.90
2023-05-24T16:38:23.366Z,4.20
2023-05-24T16:40:50.162Z,4.70
2023-05-24T16:43:17.482Z,5.17
2023-05-24T16:45:44.730Z,5.10
2023-05-24T16:48:11.699Z,4.87
2023-05-24T16:50:38.193Z,4.83
2023-05-24T16:53:06.468Z,4.33
2023-05-24T16:55:33.241Z,4.87
2023-05-24T16:57:59.682Z,4.67
2023-05-24T17:00:26.304Z,5.43
2023-05-24T17:02:52.824Z,4.97
2023-05-24T17:05:19.246Z,4.73
2023-05-24T17:07:45.918Z,4.30
2023-05-24T17:10:12.328Z,4.47
2023-05-24T17:12:38.733Z,4.50
2023-05-24T17:15:05.501Z,4.20
2023-05-24T17:17:31.947Z,4.47
2023-05-24T17:19:58.379Z,5.20
2023-05-24T17:22:24.800Z,4.40
2023-05-24T17:24:51.192Z,4.10
2023-05-24T17:27:22.116Z,4.93
2023-05-24T17:29:48.827Z,5.17
2023-05-24T17:32:15.390Z,4.93
2023-05-24T17:34:41.767Z,3.97
2023-05-24T17:37:08.192Z,3.30
2023-05-24T17:39:34.692Z,3.93
2023-05-24T17:42:01.252Z,4.30
2023-05-24T17:44:27.668Z,3.80
2023-05-24T17:46:54.292Z,4.23
2023-05-24T17:49:20.755Z,3.87
2023-05-24T17:51:47.243Z,4.53
2023-05-24T17:54:13.778Z,4.33
2023-05-24T17:56:40.201Z,4.17
2023-05-24T17:59:06.760Z,4.43
2023-05-24T18:01:33.368Z,4.13
2023-05-24T18:03:59.900Z,4.10
2023-05-24T18:06:26.659Z,4.03
2023-05-24T18:08:53.526Z,4.03
2023-05-24T18:11:19.995Z,4.20
2023-05-24T18:13:46.870Z,3.73
2023-05-24T18:16:13.857Z,4.97
2023-05-24T18:18:40.949Z,4.37
2023-05-24T18:21:09.390Z,5.30
2023-05-24T18:23:39.414Z,4.53
2023-05-24T18:26:10.614Z,4.10
2023-05-24T18:28:38.149Z,4.87
2023-05-24T18:31:08.188Z,4.60
2023-05-24T18:33:35.047Z,4.93
2023-05-24T18:36:02.001Z,4.67
2023-05-24T18:38:28.524Z,5.30
2023-05-24T18:40:55.045Z,5.00
2023-05-24T18:43:21.568Z,4.80
2023-05-24T18:45:48.007Z,4.97
2023-05-24T18:48:14.457Z,5.00
2023-05-24T18:50:40.946Z,4.13
2023-05-24T18:53:07.380Z,4.03
2023-05-24T18:55:33.842Z,4.47
2023-05-24T18:58:00.405Z,4.63
2023-05-24T19:00:27.051Z,5.37
2023-05-24T19:02:55.332Z,4.83
2023-05-24T19:05:21.953Z,5.63
2023-05-24T19:07:48.414Z,4.90
2023-05-24T19:10:14.988Z,5.43
2023-05-24T19:12:41.472Z,4.83
2023-05-24T19:15:08.500Z,4.23
2023-05-24T19:17:35.139Z,4.63
2023-05-24T19:20:02.321Z,4.30
2023-05-24T19:22:29.100Z,4.63
2023-05-24T19:24:56.233Z,4.30
2023-05-24T19:27:23.027Z,5.73
2023-05-24T19:29:49.485Z,4.90
2023-05-24T19:32:16.760Z,4.40
2023-05-24T19:34:43.302Z,3.97
2023-05-24T19:37:09.853Z,4.90
2023-05-24T19:39:36.996Z,5.00
2023-05-24T19:42:03.981Z,5.47
2023-05-24T19:44:30.827Z,5.83
2023-05-24T19:46:57.302Z,5.77
2023-05-24T19:49:23.736Z,5.40
2023-05-24T19:51:50.276Z,4.90
2023-05-24T19:54:16.727Z,4.83
2023-05-24T19:56:43.160Z,5.33
2023-05-24T19:59:09.598Z,5.17
2023-05-24T20:01:36.205Z,5.37
2023-05-24T20:04:02.838Z,5.57
2023-05-24T20:06:29.631Z,5.10
2023-05-24T20:08:58.651Z,5.83
2023-05-24T20:11:25.757Z,5.27
2023-05-24T20:13:52.541Z,5.30
2023-05-24T20:16:19.267Z,5.30
2023-05-24T20:18:45.752Z,5.93
2023-05-24T20:21:12.203Z,5.93
2023-05-24T20:23:38.669Z,6.10
2023-05-24T20:26:05.186Z,5.80
2023-05-24T20:28:32.165Z,5.00
2023-05-24T20:30:59.139Z,5.50
2023-05-24T20:33:25.644Z,6.80
2023-05-24T20:35:53.914Z,6.93
2023-05-24T20:38:20.697Z,5.67
2023-05-24T20:40:47.088Z,7.57
2023-05-24T20:43:13.542Z,7.53
2023-05-24T20:45:40.009Z,5.53
2023-05-24T20:48:06.813Z,6.30
2023-05-24T20:50:33.306Z,6.70
2023-05-24T20:52:59.787Z,6.27
2023-05-24T20:55:27.059Z,6.20
2023-05-24T20:57:53.914Z,6.27
2023-05-24T21:00:20.559Z,6.10
2023-05-24T21:02:47.158Z,6.70
2023-05-24T21:05:13.825Z,5.83
2023-05-24T21:07:40.563Z,6.33
2023-05-24T21:10:07.682Z,6.60
2023-05-24T21:12:34.127Z,6.90
2023-05-24T21:15:00.701Z,7.70
2023-05-24T21:17:27.178Z,6.80
2023-05-24T21:19:53.692Z,6.13
2023-05-24T21:22:20.252Z,6.07
2023-05-24T21:24:46.827Z,6.47
2023-05-24T21:27:13.326Z,6.23
2023-05-24T21:29:41.609Z,6.87
2023-05-24T21:32:08.080Z,6.77
2023-05-24T21:34:35.703Z,6.93
2023-05-24T21:37:02.582Z,7.10
2023-05-24T21:39:29.183Z,6.57
2023-05-24T21:41:55.711Z,6.53
2023-05-24T21:44:22.234Z,7.10
2023-05-24T21:46:48.706Z,6.93
2023-05-24T21:49:17.107Z,6.97
2023-05-24T21:51:43.511Z,7.50
2023-05-24T21:54:09.929Z,7.33
2023-05-24T21:56:37.158Z,7.40
2023-05-24T21:59:03.592Z,7.77
2023-05-24T22:01:30.101Z,7.33
2023-05-24T22:03:56.738Z,7.13
2023-05-24T22:06:23.514Z,6.67
2023-05-24T22:08:49.978Z,7.83
2023-05-24T22:11:16.411Z,7.00
2023-05-24T22:13:42.881Z,6.73
2023-05-24T22:16:09.519Z,7.20
2023-05-24T22:18:35.949Z,7.07
2023-05-24T22:21:02.380Z,7.67
2023-05-24T22:23:28.895Z,7.80
2023-05-24T22:25:55.605Z,7.60
2023-05-24T22:28:24.466Z,7.00
2023-05-24T22:30:51.051Z,7.37
2023-05-24T22:33:17.512Z,7.33
2023-05-24T22:35:44.134Z,8.20
2023-05-24T22:38:10.884Z,8.40
2023-05-24T22:40:40.845Z,7.73
2023-05-24T22:43:07.287Z,8.33
2023-05-24T22:45:33.678Z,8.50
2023-05-24T22:48:00.122Z,7.10
2023-05-24T22:50:26.996Z,8.83
2023-05-24T22:52:53.595Z,8.20
2023-05-24T22:55:20.103Z,11.27
2023-05-24T22:57:46.622Z,12.27
2023-05-24T23:00:13.440Z,11.07
2023-05-24T23:02:39.905Z,9.50
2023-05-24T23:05:06.762Z,9.73
2023-05-24T23:07:33.243Z,9.67
2023-05-24T23:09:59.790Z,9.97
2023-05-24T23:12:26.390Z,9.57
2023-05-24T23:14:53.988Z,9.57
2023-05-24T23:17:23.624Z,9.60
2023-05-24T23:19:50.313Z,8.20
2023-05-24T23:22:19.927Z,8.90
2023-05-24T23:24:49.168Z,7.30
2023-05-24T23:27:15.592Z,8.37
2023-05-24T23:29:42.103Z,7.33
2023-05-24T23:32:09.477Z,8.27
2023-05-24T23:34:36.964Z,8.07
2023-05-24T23:37:04.492Z,9.23
2023-05-24T23:39:31.202Z,8.80
2023-05-24T23:41:57.732Z,8.00
2023-05-24T23:44:25.450Z,7.17
2023-05-24T23:46:53.042Z,7.63
2023-05-24T23:49:20.381Z,8.33
2023-05-24T23:51:46.850Z,7.70
2023-05-24T23:54:16.378Z,7.50
2023-05-24T23:56:42.845Z,7.77
2023-05-24T23:59:09.371Z,6.70
